sensor_id;sensor_type;location;lat;lon;timestamp;pressure;altitude;pressure_sealevel;temperature;humidity
80911;BME280;70359;51.420;7.032;2023-09-08T00:01:23;1003.289;;;21.15;55.13574
80911;BME280;70359;51.420;7.032;2023-09-08T00:03:48;1003.261;;;21.15;55.36816
80911;BME280;70359;51.420;7.032;2023-09-08T00:06:13;1003.232;;;21.09;55.58105
80911;BME280;70359;51.420;7.032;2023-09-08T00:08:38;1003.259;;;21.03;55.8418
80911;BME280;70359;51.420;7.032;2023-09-08T00:11:03;1003.218;;;20.97;55.54297
80911;BME280;70359;51.420;7.032;2023-09-08T00:13:28;1003.202;;;20.92;56.16309
80911;BME280;70359;51.420;7.032;2023-09-08T00:15:53;1003.193;;;20.89;56.26367
80911;BME280;70359;51.420;7.032;2023-09-08T00:18:18;1003.176;;;20.92;55.44336
80911;BME280;70359;51.420;7.032;2023-09-08T00:20:43;1003.188;;;20.92;55.39746
80911;BME280;70359;51.420;7.032;2023-09-08T00:23:08;1003.154;;;20.89;55.38184
80911;BME280;70359;51.420;7.032;2023-09-08T00:25:33;1003.17;;;20.82;56.09375
80911;BME280;70359;51.420;7.032;2023-09-08T00:27:58;1003.2;;;20.74;56.44238
80911;BME280;70359;51.420;7.032;2023-09-08T00:30:23;1003.251;;;20.67;56.52637
80911;BME280;70359;51.420;7.032;2023-09-08T00:32:48;1003.243;;;20.66;56.41992
80911;BME280;70359;51.420;7.032;2023-09-08T00:35:14;1003.235;;;20.63;56.97266
80911;BME280;70359;51.420;7.032;2023-09-08T00:37:38;1003.224;;;20.59;56.97852
80911;BME280;70359;51.420;7.032;2023-09-08T00:40:04;1003.177;;;20.54;57.1709
80911;BME280;70359;51.420;7.032;2023-09-08T00:42:28;1003.141;;;20.45;57.56445
80911;BME280;70359;51.420;7.032;2023-09-08T00:44:53;1003.081;;;20.38;57.55469
80911;BME280;70359;51.420;7.032;2023-09-08T00:47:18;1003.111;;;20.39;57.82324
80911;BME280;70359;51.420;7.032;2023-09-08T00:49:43;1003.098;;;20.34;57.81641
80911;BME280;70359;51.420;7.032;2023-09-08T00:52:09;1003.128;;;20.32;57.65137
80911;BME280;70359;51.420;7.032;2023-09-08T00:54:33;1003.158;;;20.26;57.91113
80911;BME280;70359;51.420;7.032;2023-09-08T00:56:58;1003.149;;;20.22;58.21777
80911;BME280;70359;51.420;7.032;2023-09-08T00:59:23;1003.15;;;20.16;58.44238
80911;BME280;70359;51.420;7.032;2023-09-08T01:01:48;1003.131;;;20.25;57.68848
80911;BME280;70359;51.420;7.032;2023-09-08T01:04:13;1003.124;;;20.22;57.88184
80911;BME280;70359;51.420;7.032;2023-09-08T01:06:38;1003.137;;;20.25;57.875
80911;BME280;70359;51.420;7.032;2023-09-08T01:09:04;1003.194;;;20.26;58.07227
80911;BME280;70359;51.420;7.032;2023-09-08T01:11:28;1003.132;;;20.18;58.02734
80911;BME280;70359;51.420;7.032;2023-09-08T01:13:53;1003.122;;;20.12;58.30762
80911;BME280;70359;51.420;7.032;2023-09-08T01:16:18;1003.106;;;20.15;58.58984
80911;BME280;70359;51.420;7.032;2023-09-08T01:18:43;1003.052;;;20.22;57.78809
80911;BME280;70359;51.420;7.032;2023-09-08T01:23:35;1003.026;;;20.16;58.00098
80911;BME280;70359;51.420;7.032;2023-09-08T01:25:59;1003.046;;;20.14;58.17285
80911;BME280;70359;51.420;7.032;2023-09-08T01:28:23;1003.028;;;20.09;58.08594
80911;BME280;70359;51.420;7.032;2023-09-08T01:30:48;1003.043;;;20.05;58.48438
80911;BME280;70359;51.420;7.032;2023-09-08T01:33:13;1003.031;;;19.98;58.73047
80911;BME280;70359;51.420;7.032;2023-09-08T01:35:39;1002.976;;;19.98;58.60352
80911;BME280;70359;51.420;7.032;2023-09-08T01:38:03;1002.999;;;19.97;58.87891
80911;BME280;70359;51.420;7.032;2023-09-08T01:40:28;1003;;;19.96;58.68066
80911;BME280;70359;51.420;7.032;2023-09-08T01:42:53;1003.035;;;19.89;58.83496
80911;BME280;70359;51.420;7.032;2023-09-08T01:45:19;1003.002;;;19.9;58.73145
80911;BME280;70359;51.420;7.032;2023-09-08T01:47:44;1003.019;;;19.94;58.71387
80911;BME280;70359;51.420;7.032;2023-09-08T01:50:09;1003.032;;;19.94;58.4707
80911;BME280;70359;51.420;7.032;2023-09-08T01:52:34;1002.995;;;19.9;58.70801
80911;BME280;70359;51.420;7.032;2023-09-08T01:54:59;1002.954;;;19.9;58.73047
80911;BME280;70359;51.420;7.032;2023-09-08T01:57:24;1002.927;;;19.88;58.82031
80911;BME280;70359;51.420;7.032;2023-09-08T01:59:49;1002.906;;;19.87;58.85547
80911;BME280;70359;51.420;7.032;2023-09-08T02:02:14;1002.885;;;19.83;59.06934
80911;BME280;70359;51.420;7.032;2023-09-08T02:04:39;1002.894;;;19.89;58.42871
80911;BME280;70359;51.420;7.032;2023-09-08T02:07:04;1002.85;;;19.91;58.51172
80911;BME280;70359;51.420;7.032;2023-09-08T02:09:34;1002.881;;;19.94;58.40039
80911;BME280;70359;51.420;7.032;2023-09-08T02:11:54;1002.887;;;19.94;58.16895
80911;BME280;70359;51.420;7.032;2023-09-08T02:14:19;1002.883;;;19.91;58.60449
80911;BME280;70359;51.420;7.032;2023-09-08T02:16:44;1002.869;;;19.87;58.7041
80911;BME280;70359;51.420;7.032;2023-09-08T02:19:09;1002.862;;;19.87;58.71484
80911;BME280;70359;51.420;7.032;2023-09-08T02:21:34;1002.854;;;19.77;59.04785
80911;BME280;70359;51.420;7.032;2023-09-08T02:23:59;1002.845;;;19.86;57.99707
80911;BME280;70359;51.420;7.032;2023-09-08T02:26:24;1002.836;;;19.88;58.37012
80911;BME280;70359;51.420;7.032;2023-09-08T02:28:49;1002.812;;;19.89;58.27832
80911;BME280;70359;51.420;7.032;2023-09-08T02:31:14;1002.878;;;19.8;58.52246
80911;BME280;70359;51.420;7.032;2023-09-08T02:33:39;1002.885;;;19.75;58.72363
80911;BME280;70359;51.420;7.032;2023-09-08T02:36:07;1002.945;;;19.71;59.2373
80911;BME280;70359;51.420;7.032;2023-09-08T02:38:29;1002.944;;;19.67;59.3252
80911;BME280;70359;51.420;7.032;2023-09-08T02:40:54;1002.931;;;19.64;59.29688
80911;BME280;70359;51.420;7.032;2023-09-08T02:43:19;1002.917;;;19.58;59.37012
80911;BME280;70359;51.420;7.032;2023-09-08T02:45:44;1002.87;;;19.58;59.34766
80911;BME280;70359;51.420;7.032;2023-09-08T02:48:09;1002.896;;;19.6;59.22363
80911;BME280;70359;51.420;7.032;2023-09-08T02:50:34;1002.887;;;19.63;59.08789
80911;BME280;70359;51.420;7.032;2023-09-08T02:52:59;1002.94;;;19.76;58.07715
80911;BME280;70359;51.420;7.032;2023-09-08T02:55:24;1002.912;;;19.78;57.81348
80911;BME280;70359;51.420;7.032;2023-09-08T02:57:49;1002.931;;;19.82;57.70215
80911;BME280;70359;51.420;7.032;2023-09-08T03:00:14;1002.918;;;19.85;57.37207
80911;BME280;70359;51.420;7.032;2023-09-08T03:02:39;1002.92;;;19.81;58.26953
80911;BME280;70359;51.420;7.032;2023-09-08T03:05:04;1002.9;;;19.7;58.38086
80911;BME280;70359;51.420;7.032;2023-09-08T03:07:29;1002.903;;;19.72;57.85156
80911;BME280;70359;51.420;7.032;2023-09-08T03:09:54;1002.946;;;19.64;58.25684
80911;BME280;70359;51.420;7.032;2023-09-08T03:12:19;1002.916;;;19.59;58.92188
80911;BME280;70359;51.420;7.032;2023-09-08T03:14:44;1002.89;;;19.55;58.68457
80911;BME280;70359;51.420;7.032;2023-09-08T03:17:09;1002.914;;;19.56;58.74512
80911;BME280;70359;51.420;7.032;2023-09-08T03:19:34;1002.858;;;19.61;58.20801
80911;BME280;70359;51.420;7.032;2023-09-08T03:21:59;1002.89;;;19.58;58.21484
80911;BME280;70359;51.420;7.032;2023-09-08T03:24:24;1002.871;;;19.56;58.68555
80911;BME280;70359;51.420;7.032;2023-09-08T03:26:49;1002.864;;;19.52;58.57715
80911;BME280;70359;51.420;7.032;2023-09-08T03:29:14;1002.841;;;19.47;58.99902
80911;BME280;70359;51.420;7.032;2023-09-08T03:31:39;1002.804;;;19.49;58.48145
80911;BME280;70359;51.420;7.032;2023-09-08T03:34:04;1002.78;;;19.59;57.87012
80911;BME280;70359;51.420;7.032;2023-09-08T03:36:29;1002.743;;;19.64;57.66797
80911;BME280;70359;51.420;7.032;2023-09-08T03:38:54;1002.677;;;19.64;57.74902
80911;BME280;70359;51.420;7.032;2023-09-08T03:41:19;1002.685;;;19.6;57.92871
80911;BME280;70359;51.420;7.032;2023-09-08T03:43:44;1002.722;;;19.5;58.40137
80911;BME280;70359;51.420;7.032;2023-09-08T03:46:09;1002.689;;;19.54;58.21094
80911;BME280;70359;51.420;7.032;2023-09-08T03:48:34;1002.699;;;19.47;58.75586
80911;BME280;70359;51.420;7.032;2023-09-08T03:50:59;1002.692;;;19.43;58.60156
80911;BME280;70359;51.420;7.032;2023-09-08T03:53:24;1002.661;;;19.48;57.88965
80911;BME280;70359;51.420;7.032;2023-09-08T03:55:49;1002.628;;;19.52;57.6416
80911;BME280;70359;51.420;7.032;2023-09-08T03:58:14;1002.695;;;19.59;57.61719
80911;BME280;70359;51.420;7.032;2023-09-08T04:00:39;1002.667;;;19.59;57.32715
80911;BME280;70359;51.420;7.032;2023-09-08T04:03:04;1002.706;;;19.56;57.77441
80911;BME280;70359;51.420;7.032;2023-09-08T04:05:29;1002.689;;;19.49;57.89355
80911;BME280;70359;51.420;7.032;2023-09-08T04:07:54;1002.681;;;19.4;58.91895
80911;BME280;70359;51.420;7.032;2023-09-08T04:10:19;1002.695;;;19.36;58.61523
80911;BME280;70359;51.420;7.032;2023-09-08T04:12:44;1002.71;;;19.35;58.48535
80911;BME280;70359;51.420;7.032;2023-09-08T04:15:09;1002.714;;;19.31;58.75781
80911;BME280;70359;51.420;7.032;2023-09-08T04:17:34;1002.698;;;19.28;58.47559
80911;BME280;70359;51.420;7.032;2023-09-08T04:19:59;1002.735;;;19.34;58.35742
80911;BME280;70359;51.420;7.032;2023-09-08T04:22:24;1002.67;;;19.34;57.76855
80911;BME280;70359;51.420;7.032;2023-09-08T04:24:49;1002.676;;;19.35;57.80371
80911;BME280;70359;51.420;7.032;2023-09-08T04:27:14;1002.674;;;19.33;58.37891
80911;BME280;70359;51.420;7.032;2023-09-08T04:29:39;1002.686;;;19.37;57.95605
80911;BME280;70359;51.420;7.032;2023-09-08T04:32:04;1002.659;;;19.39;57.80957
80911;BME280;70359;51.420;7.032;2023-09-08T04:34:29;1002.651;;;19.39;57.89063
80911;BME280;70359;51.420;7.032;2023-09-08T04:36:54;1002.686;;;19.36;57.93359
80911;BME280;70359;51.420;7.032;2023-09-08T04:39:19;1002.704;;;19.35;57.70117
80911;BME280;70359;51.420;7.032;2023-09-08T04:41:44;1002.704;;;19.35;57.81445
80911;BME280;70359;51.420;7.032;2023-09-08T04:44:09;1002.709;;;19.33;57.85938
80911;BME280;70359;51.420;7.032;2023-09-08T04:46:34;1002.697;;;19.3;57.9707
80911;BME280;70359;51.420;7.032;2023-09-08T04:48:59;1002.68;;;19.29;58.25879
80911;BME280;70359;51.420;7.032;2023-09-08T04:51:24;1002.714;;;19.31;57.92676
80911;BME280;70359;51.420;7.032;2023-09-08T04:53:49;1002.679;;;19.33;57.65137
80911;BME280;70359;51.420;7.032;2023-09-08T04:56:14;1002.698;;;19.33;57.92871
80911;BME280;70359;51.420;7.032;2023-09-08T04:58:39;1002.698;;;19.37;57.4375
80911;BME280;70359;51.420;7.032;2023-09-08T05:01:04;1002.679;;;19.37;57.54102
80911;BME280;70359;51.420;7.032;2023-09-08T05:03:29;1002.732;;;19.35;58.09277
80911;BME280;70359;51.420;7.032;2023-09-08T05:05:54;1002.74;;;19.34;58.17188
80911;BME280;70359;51.420;7.032;2023-09-08T05:08:19;1002.734;;;19.31;58.46875
80911;BME280;70359;51.420;7.032;2023-09-08T05:10:44;1002.765;;;19.34;58.12598
80911;BME280;70359;51.420;7.032;2023-09-08T05:13:09;1002.719;;;19.28;58.74121
80911;BME280;70359;51.420;7.032;2023-09-08T05:15:34;1002.691;;;19.29;58.66309
80911;BME280;70359;51.420;7.032;2023-09-08T05:17:59;1002.717;;;19.26;58.71582
80911;BME280;70359;51.420;7.032;2023-09-08T05:20:25;1002.693;;;19.27;58.5791
80911;BME280;70359;51.420;7.032;2023-09-08T05:22:49;1002.691;;;19.3;58.0293
80911;BME280;70359;51.420;7.032;2023-09-08T05:25:14;1002.689;;;19.36;58.2334
80911;BME280;70359;51.420;7.032;2023-09-08T05:27:39;1002.714;;;19.39;57.74023
80911;BME280;70359;51.420;7.032;2023-09-08T05:30:05;1002.685;;;19.38;57.9707
80911;BME280;70359;51.420;7.032;2023-09-08T05:32:29;1002.677;;;19.39;57.82129
80911;BME280;70359;51.420;7.032;2023-09-08T05:34:54;1002.666;;;19.43;57.72168
80911;BME280;70359;51.420;7.032;2023-09-08T05:37:19;1002.689;;;19.44;57.87402
80911;BME280;70359;51.420;7.032;2023-09-08T05:39:44;1002.667;;;19.46;57.49512
80911;BME280;70359;51.420;7.032;2023-09-08T05:42:09;1002.638;;;19.52;57.375
80911;BME280;70359;51.420;7.032;2023-09-08T05:44:34;1002.663;;;19.55;57.51758
80911;BME280;70359;51.420;7.032;2023-09-08T05:46:59;1002.644;;;19.58;57.37207
80911;BME280;70359;51.420;7.032;2023-09-08T05:49:24;1002.645;;;19.64;57.33398
80911;BME280;70359;51.420;7.032;2023-09-08T05:51:49;1002.721;;;19.62;57.76953
80911;BME280;70359;51.420;7.032;2023-09-08T05:54:14;1002.699;;;19.67;57.38379
80911;BME280;70359;51.420;7.032;2023-09-08T05:56:40;1002.697;;;19.67;57.31445
80911;BME280;70359;51.420;7.032;2023-09-08T05:59:04;1002.723;;;19.71;57.41211
80911;BME280;70359;51.420;7.032;2023-09-08T06:01:29;1002.733;;;19.72;57.40039
80911;BME280;70359;51.420;7.032;2023-09-08T06:03:54;1002.701;;;19.74;57.90039
80911;BME280;70359;51.420;7.032;2023-09-08T06:06:19;1002.702;;;19.76;57.79883
80911;BME280;70359;51.420;7.032;2023-09-08T06:08:44;1002.68;;;19.83;57.66992
80911;BME280;70359;51.420;7.032;2023-09-08T06:11:09;1002.699;;;19.88;57.65234
80911;BME280;70359;51.420;7.032;2023-09-08T06:13:34;1002.72;;;19.92;58.07422
80911;BME280;70359;51.420;7.032;2023-09-08T06:15:59;1002.675;;;20;57.81836
80911;BME280;70359;51.420;7.032;2023-09-08T06:18:25;1002.669;;;20.03;57.78809
80911;BME280;70359;51.420;7.032;2023-09-08T06:20:49;1002.669;;;20.11;57.52051
80911;BME280;70359;51.420;7.032;2023-09-08T06:23:14;1002.697;;;20.14;57.64063
80911;BME280;70359;51.420;7.032;2023-09-08T06:25:39;1002.733;;;20.21;57.41797
80911;BME280;70359;51.420;7.032;2023-09-08T06:28:04;1002.778;;;20.26;56.97363
80911;BME280;70359;51.420;7.032;2023-09-08T06:30:30;1002.76;;;20.3;57.33691
80911;BME280;70359;51.420;7.032;2023-09-08T06:32:54;1002.82;;;20.36;57.55371
80911;BME280;70359;51.420;7.032;2023-09-08T06:35:19;1002.816;;;20.41;57.59375
80911;BME280;70359;51.420;7.032;2023-09-08T06:37:44;1002.826;;;20.41;58.02246
80911;BME280;70359;51.420;7.032;2023-09-08T06:40:09;1002.778;;;20.56;55.80469
80911;BME280;70359;51.420;7.032;2023-09-08T06:42:34;1002.763;;;20.58;55.96973
80911;BME280;70359;51.420;7.032;2023-09-08T06:44:59;1002.785;;;20.73;55.94238
80911;BME280;70359;51.420;7.032;2023-09-08T06:47:24;1002.778;;;20.75;55.63281
80911;BME280;70359;51.420;7.032;2023-09-08T06:49:49;1002.768;;;20.86;55.86621
80911;BME280;70359;51.420;7.032;2023-09-08T06:52:14;1002.768;;;20.9;54.37402
80911;BME280;70359;51.420;7.032;2023-09-08T06:54:39;1002.798;;;21;53.09863
80911;BME280;70359;51.420;7.032;2023-09-08T06:57:04;1002.8;;;21.07;53.7334
80911;BME280;70359;51.420;7.032;2023-09-08T06:59:29;1002.807;;;21.14;53.63672
80911;BME280;70359;51.420;7.032;2023-09-08T07:01:54;1002.788;;;21.23;54.04199
80911;BME280;70359;51.420;7.032;2023-09-08T07:04:19;1002.807;;;21.28;54.2002
80911;BME280;70359;51.420;7.032;2023-09-08T07:06:44;1002.822;;;21.32;54.50684
80911;BME280;70359;51.420;7.032;2023-09-08T07:09:09;1002.832;;;21.46;53.24512
80911;BME280;70359;51.420;7.032;2023-09-08T07:11:34;1002.861;;;21.49;52.79492
80911;BME280;70359;51.420;7.032;2023-09-08T07:13:59;1002.862;;;21.68;52.93457
80911;BME280;70359;51.420;7.032;2023-09-08T07:16:24;1002.855;;;21.69;52.79492
80911;BME280;70359;51.420;7.032;2023-09-08T07:18:49;1002.87;;;21.78;51.70117
80911;BME280;70359;51.420;7.032;2023-09-08T07:21:14;1002.863;;;21.87;50.91992
80911;BME280;70359;51.420;7.032;2023-09-08T07:23:39;1002.858;;;21.99;51.72461
80911;BME280;70359;51.420;7.032;2023-09-08T07:26:04;1002.858;;;22.04;53.26758
80911;BME280;70359;51.420;7.032;2023-09-08T07:28:30;1002.809;;;22.15;53.43164
80911;BME280;70359;51.420;7.032;2023-09-08T07:30:54;1002.852;;;22.2;53.53125
80911;BME280;70359;51.420;7.032;2023-09-08T07:33:19;1002.865;;;22.31;53.60254
80911;BME280;70359;51.420;7.032;2023-09-08T07:35:44;1002.877;;;22.4;53.32227
80911;BME280;70359;51.420;7.032;2023-09-08T07:38:09;1002.902;;;22.48;51.74707
80911;BME280;70359;51.420;7.032;2023-09-08T07:40:35;1002.92;;;22.55;51.63867
80911;BME280;70359;51.420;7.032;2023-09-08T07:42:59;1002.972;;;22.67;51.66406
80911;BME280;70359;51.420;7.032;2023-09-08T07:45:24;1002.951;;;22.75;50.92676
80911;BME280;70359;51.420;7.032;2023-09-08T07:47:49;1002.913;;;22.79;51.40918
80911;BME280;70359;51.420;7.032;2023-09-08T07:50:21;1002.914;;;22.93;52.89551
80911;BME280;70359;51.420;7.032;2023-09-08T07:52:39;1002.911;;;23.01;54.2334
80911;BME280;70359;51.420;7.032;2023-09-08T07:55:04;1002.897;;;23.15;52.17383
80911;BME280;70359;51.420;7.032;2023-09-08T07:57:29;1002.887;;;23.19;53.06543
80911;BME280;70359;51.420;7.032;2023-09-08T07:59:54;1002.916;;;23.35;52.95508
80911;BME280;70359;51.420;7.032;2023-09-08T08:02:19;1002.904;;;23.39;52.55078
80911;BME280;70359;51.420;7.032;2023-09-08T08:04:44;1002.912;;;23.49;50.57813
80911;BME280;70359;51.420;7.032;2023-09-08T08:07:09;1002.89;;;23.58;50.48242
80911;BME280;70359;51.420;7.032;2023-09-08T08:09:34;1002.876;;;23.7;50.97656
80911;BME280;70359;51.420;7.032;2023-09-08T08:11:59;1002.893;;;23.79;51.28906
80911;BME280;70359;51.420;7.032;2023-09-08T08:14:24;1002.835;;;23.9;50.88086
80911;BME280;70359;51.420;7.032;2023-09-08T08:16:49;1002.86;;;23.92;51.15137
80911;BME280;70359;51.420;7.032;2023-09-08T08:19:14;1002.9;;;24.09;51.40625
80911;BME280;70359;51.420;7.032;2023-09-08T08:21:39;1002.865;;;24.11;51.4668
80911;BME280;70359;51.420;7.032;2023-09-08T08:24:05;1002.832;;;24.29;49.75488
80911;BME280;70359;51.420;7.032;2023-09-08T08:26:29;1002.841;;;24.31;49.40527
80911;BME280;70359;51.420;7.032;2023-09-08T08:28:54;1002.802;;;24.49;48.34766
80911;BME280;70359;51.420;7.032;2023-09-08T08:31:19;1002.854;;;24.52;49.38086
80911;BME280;70359;51.420;7.032;2023-09-08T08:33:44;1002.853;;;24.64;49.85156
80911;BME280;70359;51.420;7.032;2023-09-08T08:36:10;1002.847;;;24.71;49.83496
80911;BME280;70359;51.420;7.032;2023-09-08T08:38:34;1002.836;;;24.82;49.10938
80911;BME280;70359;51.420;7.032;2023-09-08T08:41:05;1002.823;;;24.92;47.62988
80911;BME280;70359;51.420;7.032;2023-09-08T08:43:25;1002.787;;;25.05;47.19922
80911;BME280;70359;51.420;7.032;2023-09-08T08:45:49;1002.802;;;25.15;47.12598
80911;BME280;70359;51.420;7.032;2023-09-08T08:48:14;1002.826;;;25.25;47.60645
80911;BME280;70359;51.420;7.032;2023-09-08T08:50:40;1002.842;;;25.37;44.7998
80911;BME280;70359;51.420;7.032;2023-09-08T08:53:04;1002.823;;;25.45;44.24414
80911;BME280;70359;51.420;7.032;2023-09-08T08:55:30;1002.825;;;25.57;44.20801
80911;BME280;70359;51.420;7.032;2023-09-08T08:57:55;1002.888;;;25.7;46.39648
80911;BME280;70359;51.420;7.032;2023-09-08T09:00:20;1002.842;;;25.78;44.40527
80911;BME280;70359;51.420;7.032;2023-09-08T09:02:45;1002.805;;;25.81;44.04395
80911;BME280;70359;51.420;7.032;2023-09-08T09:05:10;1002.859;;;25.96;44.55176
80911;BME280;70359;51.420;7.032;2023-09-08T09:07:35;1002.867;;;25.98;45.38965
80911;BME280;70359;51.420;7.032;2023-09-08T09:10:00;1002.85;;;26.1;44.41309
80911;BME280;70359;51.420;7.032;2023-09-08T09:12:25;1002.857;;;26.11;45.42676
80911;BME280;70359;51.420;7.032;2023-09-08T09:14:51;1002.876;;;26.24;42.36426
80911;BME280;70359;51.420;7.032;2023-09-08T09:17:15;1002.875;;;26.3;41.42773
80911;BME280;70359;51.420;7.032;2023-09-08T09:19:40;1002.853;;;26.41;42.28613
80911;BME280;70359;51.420;7.032;2023-09-08T09:22:05;1002.823;;;26.44;41.59277
80911;BME280;70359;51.420;7.032;2023-09-08T09:24:33;1002.844;;;26.53;43.42969
80911;BME280;70359;51.420;7.032;2023-09-08T09:26:55;1002.848;;;26.57;44.45801
80911;BME280;70359;51.420;7.032;2023-09-08T09:29:20;1002.877;;;26.67;45.24609
80911;BME280;70359;51.420;7.032;2023-09-08T09:31:54;1002.847;;;26.67;44.13867
80911;BME280;70359;51.420;7.032;2023-09-08T09:34:10;1002.819;;;26.82;45.62598
80911;BME280;70359;51.420;7.032;2023-09-08T09:36:35;1002.806;;;26.79;43.67773
80911;BME280;70359;51.420;7.032;2023-09-08T09:39:01;1002.787;;;26.96;45.32227
80911;BME280;70359;51.420;7.032;2023-09-08T09:41:26;1002.762;;;26.91;45.05859
80911;BME280;70359;51.420;7.032;2023-09-08T09:43:50;1002.762;;;26.99;44.44141
80911;BME280;70359;51.420;7.032;2023-09-08T09:46:15;1002.753;;;26.98;45.0293
80911;BME280;70359;51.420;7.032;2023-09-08T09:48:40;1002.778;;;27.05;42.72363
80911;BME280;70359;51.420;7.032;2023-09-08T09:53:30;1002.787;;;27.12;42.10449
80911;BME280;70359;51.420;7.032;2023-09-08T09:55:55;1002.771;;;27.11;41.85547
80911;BME280;70359;51.420;7.032;2023-09-08T09:58:20;1002.764;;;27.18;40.43359
80911;BME280;70359;51.420;7.032;2023-09-08T10:00:45;1002.798;;;27.23;40.25977
80911;BME280;70359;51.420;7.032;2023-09-08T10:03:10;1002.767;;;27.24;40.28418
80911;BME280;70359;51.420;7.032;2023-09-08T10:05:35;1002.795;;;27.31;40.67969
80911;BME280;70359;51.420;7.032;2023-09-08T10:08:00;1002.793;;;27.29;40.07617
80911;BME280;70359;51.420;7.032;2023-09-08T10:10:26;1002.772;;;27.32;40.11426
80911;BME280;70359;51.420;7.032;2023-09-08T10:12:52;1002.781;;;27.28;40.67773
80911;BME280;70359;51.420;7.032;2023-09-08T10:15:15;1002.77;;;27.37;40.41406
80911;BME280;70359;51.420;7.032;2023-09-08T10:17:40;1002.743;;;27.32;40.25684
80911;BME280;70359;51.420;7.032;2023-09-08T10:20:05;1002.77;;;27.43;41.97949
80911;BME280;70359;51.420;7.032;2023-09-08T10:22:30;1002.766;;;27.4;41.19727
80911;BME280;70359;51.420;7.032;2023-09-08T10:24:55;1002.782;;;27.46;40.74219
80911;BME280;70359;51.420;7.032;2023-09-08T10:27:20;1002.74;;;27.38;39.55176
80911;BME280;70359;51.420;7.032;2023-09-08T10:29:45;1002.746;;;27.45;40.19727
80911;BME280;70359;51.420;7.032;2023-09-08T10:32:10;1002.728;;;27.49;39.92871
80911;BME280;70359;51.420;7.032;2023-09-08T10:34:35;1002.707;;;27.51;41.44336
80911;BME280;70359;51.420;7.032;2023-09-08T10:37:00;1002.699;;;27.48;42.75293
80911;BME280;70359;51.420;7.032;2023-09-08T10:39:31;1002.676;;;27.55;42.54688
80911;BME280;70359;51.420;7.032;2023-09-08T10:41:50;1002.66;;;27.5;42.11719
80911;BME280;70359;51.420;7.032;2023-09-08T10:44:15;1002.655;;;27.62;41.48828
80911;BME280;70359;51.420;7.032;2023-09-08T10:46:40;1002.65;;;27.52;41.19629
80911;BME280;70359;51.420;7.032;2023-09-08T10:49:05;1002.682;;;27.6;42.16113
80911;BME280;70359;51.420;7.032;2023-09-08T10:51:30;1002.645;;;27.54;41.78809
80911;BME280;70359;51.420;7.032;2023-09-08T10:53:55;1002.695;;;27.61;42.31543
80911;BME280;70359;51.420;7.032;2023-09-08T10:56:22;1002.668;;;27.56;41.80273
80911;BME280;70359;51.420;7.032;2023-09-08T10:58:48;1002.675;;;27.61;41.83105
80911;BME280;70359;51.420;7.032;2023-09-08T11:01:11;1002.676;;;27.58;41.80469
80911;BME280;70359;51.420;7.032;2023-09-08T11:03:46;1002.753;;;27.65;41.44434
80911;BME280;70359;51.420;7.032;2023-09-08T11:06:00;1002.771;;;27.59;41.74609
80911;BME280;70359;51.420;7.032;2023-09-08T11:08:25;1002.743;;;27.64;42.3418
80911;BME280;70359;51.420;7.032;2023-09-08T11:10:50;1002.766;;;27.64;41.53809
80911;BME280;70359;51.420;7.032;2023-09-08T11:13:15;1002.75;;;27.63;41.43066
80911;BME280;70359;51.420;7.032;2023-09-08T11:15:40;1002.756;;;27.65;40.75879
80911;BME280;70359;51.420;7.032;2023-09-08T11:18:08;1002.7;;;27.64;39.91797
80911;BME280;70359;51.420;7.032;2023-09-08T11:20:30;1002.718;;;27.66;40.91309
80911;BME280;70359;51.420;7.032;2023-09-08T11:22:55;1002.72;;;27.63;41.05273
80911;BME280;70359;51.420;7.032;2023-09-08T11:25:20;1002.769;;;27.67;40.28711
80911;BME280;70359;51.420;7.032;2023-09-08T11:27:45;1002.764;;;27.61;40.0332
80911;BME280;70359;51.420;7.032;2023-09-08T11:30:10;1002.755;;;27.69;39.81543
80911;BME280;70359;51.420;7.032;2023-09-08T11:32:35;1002.729;;;27.64;39.5625
80911;BME280;70359;51.420;7.032;2023-09-08T11:35:00;1002.694;;;27.7;40.57324
80911;BME280;70359;51.420;7.032;2023-09-08T11:37:25;1002.699;;;27.65;41.44434
80911;BME280;70359;51.420;7.032;2023-09-08T11:39:50;1002.666;;;27.72;37.72266
80911;BME280;70359;51.420;7.032;2023-09-08T11:42:15;1002.63;;;27.71;39.13086
80911;BME280;70359;51.420;7.032;2023-09-08T11:44:40;1002.634;;;27.78;39.5166
80911;BME280;70359;51.420;7.032;2023-09-08T11:47:05;1002.606;;;27.66;38.44043
80911;BME280;70359;51.420;7.032;2023-09-08T11:49:30;1002.561;;;27.68;38.39551
80911;BME280;70359;51.420;7.032;2023-09-08T11:51:55;1002.622;;;27.61;38.64941
80911;BME280;70359;51.420;7.032;2023-09-08T11:54:20;1002.57;;;27.69;38.70313
80911;BME280;70359;51.420;7.032;2023-09-08T11:56:45;1002.551;;;27.71;38.59863
80911;BME280;70359;51.420;7.032;2023-09-08T11:59:10;1002.543;;;27.77;39.09961
80911;BME280;70359;51.420;7.032;2023-09-08T12:01:35;1002.531;;;27.72;38.48145
80911;BME280;70359;51.420;7.032;2023-09-08T12:04:00;1002.524;;;27.68;37.86328
80911;BME280;70359;51.420;7.032;2023-09-08T12:06:27;1002.54;;;27.68;38.2168
80911;BME280;70359;51.420;7.032;2023-09-08T12:08:50;1002.541;;;27.64;38.53418
80911;BME280;70359;51.420;7.032;2023-09-08T12:11:15;1002.527;;;27.7;39.66309
80911;BME280;70359;51.420;7.032;2023-09-08T12:13:40;1002.557;;;27.69;38.66797
80911;BME280;70359;51.420;7.032;2023-09-08T12:16:16;1002.522;;;27.69;39.31836
80911;BME280;70359;51.420;7.032;2023-09-08T12:18:42;1002.479;;;27.75;37.91504
80911;BME280;70359;51.420;7.032;2023-09-08T12:21:02;1002.45;;;27.79;37.76563
80911;BME280;70359;51.420;7.032;2023-09-08T12:23:20;1002.45;;;27.75;37.95215
80911;BME280;70359;51.420;7.032;2023-09-08T12:25:48;1002.478;;;27.83;37.7207